createdAt,value
2022-08-08T00:02:03.633Z,100.00
2022-08-08T00:07:29.993Z,100.00
2022-08-08T00:13:20.877Z,100.00
2022-08-08T00:19:46.539Z,100.00
2022-08-08T00:25:50.985Z,100.00
2022-08-08T00:32:29.361Z,100.00
2022-08-08T00:37:47.601Z,100.00
2022-08-08T00:43:59.097Z,100.00
2022-08-08T00:49:58.572Z,100.00
2022-08-08T00:55:55.525Z,100.00
2022-08-08T01:01:40.755Z,100.00
2022-08-08T01:07:55.689Z,100.00
2022-08-08T01:13:44.484Z,100.00
2022-08-08T01:20:02.681Z,100.00
2022-08-08T01:25:54.144Z,100.00
2022-08-08T01:32:12.751Z,100.00
2022-08-08T01:37:58.331Z,100.00
2022-08-08T01:44:10.080Z,100.00
2022-08-08T01:49:37.940Z,100.00
2022-08-08T01:56:27.794Z,100.00
2022-08-08T02:02:00.449Z,100.00
2022-08-08T02:07:41.408Z,100.00
2022-08-08T02:13:52.873Z,100.00
2022-08-08T02:19:10.041Z,100.00
2022-08-08T02:24:59.637Z,100.00
2022-08-08T02:30:50.065Z,100.00
2022-08-08T02:36:43.909Z,100.00
2022-08-08T02:42:38.044Z,100.00
2022-08-08T02:48:42.656Z,100.00
2022-08-08T02:54:29.192Z,100.00
2022-08-08T03:00:26.502Z,100.00
2022-08-08T03:06:34.243Z,100.00
2022-08-08T03:13:01.086Z,100.00
2022-08-08T03:18:31.391Z,100.00
2022-08-08T03:24:02.703Z,100.00
2022-08-08T03:29:54.868Z,100.00
2022-08-08T03:35:15.844Z,100.00
2022-08-08T03:40:37.929Z,100.00
2022-08-08T03:46:08.855Z,100.00
2022-08-08T03:51:50.740Z,100.00
2022-08-08T03:58:33.830Z,100.00
2022-08-08T04:03:12.120Z,100.00
2022-08-08T04:08:47.426Z,100.00
2022-08-08T04:14:34.253Z,100.00
2022-08-08T04:20:08.791Z,100.00
2022-08-08T04:26:06.679Z,100.00
2022-08-08T04:32:30.908Z,100.00
2022-08-08T04:44:50.932Z,100.00
2022-08-08T04:50:48.817Z,100.00
2022-08-08T04:56:25.871Z,100.00
2022-08-08T05:01:51.021Z,100.00
2022-08-08T05:07:24.740Z,100.00
2022-08-08T05:12:59.960Z,100.00
2022-08-08T05:18:31.379Z,100.00
2022-08-08T05:24:04.225Z,100.00
2022-08-08T05:29:31.021Z,100.00
2022-08-08T05:34:54.583Z,100.00
2022-08-08T05:40:28.323Z,100.00
2022-08-08T05:46:08.252Z,100.00
2022-08-08T05:51:48.064Z,100.00
2022-08-08T05:58:04.065Z,100.00
2022-08-08T06:03:24.634Z,100.00
2022-08-08T06:08:55.320Z,100.00
2022-08-08T06:14:23.517Z,100.00
2022-08-08T06:19:47.443Z,100.00
2022-08-08T06:25:10.376Z,100.00
2022-08-08T06:30:36.653Z,100.00
2022-08-08T06:36:09.295Z,100.00
2022-08-08T06:41:35.013Z,100.00
2022-08-08T06:46:59.673Z,100.00
2022-08-08T06:52:24.490Z,100.00
2022-08-08T06:57:54.835Z,100.00
2022-08-08T07:03:52.489Z,100.00
2022-08-08T07:09:20.792Z,100.00
2022-08-08T07:15:31.770Z,100.00
2022-08-08T07:21:19.357Z,100.00
2022-08-08T07:26:53.018Z,100.00
2022-08-08T07:32:22.242Z,100.00
2022-08-08T07:37:56.376Z,100.00
2022-08-08T07:43:37.755Z,100.00
2022-08-08T07:49:05.844Z,100.00
2022-08-08T07:54:52.137Z,100.00
2022-08-08T08:00:17.100Z,100.00
2022-08-08T08:05:53.490Z,100.00
2022-08-08T08:11:23.888Z,100.00
2022-08-08T08:17:00.161Z,100.00
2022-08-08T08:22:25.498Z,100.00
2022-08-08T08:27:56.208Z,100.00
2022-08-08T08:33:20.084Z,100.00
2022-08-08T08:38:49.531Z,100.00
2022-08-08T08:44:19.435Z,100.00
2022-08-08T08:49:42.953Z,100.00
2022-08-08T08:55:06.776Z,100.00
2022-08-08T09:00:44.444Z,100.00
2022-08-08T09:06:26.674Z,100.00
2022-08-08T09:12:01.970Z,100.00
2022-08-08T09:17:42.108Z,100.00
2022-08-08T09:23:25.679Z,100.00
2022-08-08T09:28:51.162Z,100.00
2022-08-08T09:34:31.139Z,100.00
2022-08-08T09:40:11.104Z,100.00
2022-08-08T09:46:03.673Z,100.00
2022-08-08T09:52:01.565Z,100.00
2022-08-08T09:57:19.655Z,100.00
2022-08-08T10:02:52.411Z,100.00
2022-08-08T10:09:29.624Z,100.00
2022-08-08T10:15:02.215Z,100.00
2022-08-08T10:21:00.287Z,100.00
2022-08-08T10:26:57.438Z,100.00
2022-08-08T10:32:39.428Z,99.32
2022-08-08T10:38:08.148Z,99.24
2022-08-08T10:43:43.350Z,93.74
2022-08-08T10:49:06.981Z,97.95
2022-08-08T10:55:15.406Z,93.17
2022-08-08T11:01:12.685Z,91.32
2022-08-08T11:06:47.419Z,90.82
2022-08-08T11:12:14.203Z,92.26
2022-08-08T11:18:00.719Z,91.92
2022-08-08T11:23:31.272Z,93.25
2022-08-08T11:29:02.428Z,95.50
2022-08-08T11:34:41.949Z,100.00
2022-08-08T11:40:22.653Z,100.00
2022-08-08T11:46:09.545Z,100.00
2022-08-08T11:51:40.134Z,100.00
2022-08-08T11:57:35.325Z,100.00
2022-08-08T12:03:04.121Z,100.00
2022-08-08T12:08:37.594Z,100.00
2022-08-08T12:14:12.178Z,100.00
2022-08-08T12:19:50.833Z,100.00
2022-08-08T12:25:31.091Z,100.00
2022-08-08T12:30:53.621Z,100.00
2022-08-08T12:36:16.341Z,100.00
2022-08-08T12:41:56.798Z,100.00
2022-08-08T12:47:57.985Z,100.00
2022-08-08T12:53:37.919Z,100.00
2022-08-08T12:59:27.257Z,100.00
2022-08-08T13:05:00.847Z,100.00
2022-08-08T13:10:46.165Z,100.00
2022-08-08T13:16:30.008Z,100.00
2022-08-08T13:22:02.574Z,100.00
2022-08-08T13:27:35.539Z,100.00
2022-08-08T13:32:59.282Z,100.00
2022-08-08T13:38:21.819Z,100.00
2022-08-08T13:43:51.002Z,100.00
2022-08-08T13:50:35.185Z,100.00
2022-08-08T13:55:06.778Z,100.00
2022-08-08T14:00:29.520Z,100.00
2022-08-08T14:05:58.800Z,100.00
2022-08-08T14:11:28.256Z,100.00
2022-08-08T14:16:53.280Z,100.00
2022-08-08T14:22:28.636Z,100.00
2022-08-08T14:28:00.126Z,100.00
2022-08-08T14:33:34.076Z,100.00
2022-08-08T14:39:01.227Z,100.00
2022-08-08T14:44:35.240Z,100.00
2022-08-08T14:50:14.119Z,100.00
2022-08-08T14:55:43.715Z,100.00
2022-08-08T15:01:07.423Z,100.00
2022-08-08T15:06:48.032Z,100.00
2022-08-08T15:12:12.936Z,100.00
2022-08-08T15:17:38.044Z,100.00
2022-08-08T15:23:05.916Z,100.00
2022-08-08T15:28:34.619Z,100.00
2022-08-08T15:34:00.030Z,100.00
2022-08-08T15:39:25.870Z,100.00
2022-08-08T15:44:47.965Z,100.00
2022-08-08T15:50:20.451Z,100.00
2022-08-08T15:55:44.570Z,100.00
2022-08-08T16:01:09.445Z,100.00
2022-08-08T16:06:31.978Z,100.00
2022-08-08T16:13:14.685Z,100.00
2022-08-08T16:17:57.374Z,100.00
2022-08-08T16:23:17.538Z,100.00
2022-08-08T16:28:42.031Z,100.00
2022-08-08T16:34:04.078Z,100.00
2022-08-08T16:39:27.897Z,100.00
2022-08-08T16:45:11.428Z,100.00
2022-08-08T16:50:50.657Z,100.00
2022-08-08T16:56:15.129Z,100.00
2022-08-08T17:01:39.767Z,100.00
2022-08-08T17:07:02.669Z,100.00
2022-08-08T17:12:28.381Z,100.00
2022-08-08T17:18:03.183Z,100.00
2022-08-08T17:24:00.923Z,100.00
2022-08-08T17:29:09.955Z,100.00
2022-08-08T17:34:59.804Z,100.00
2022-08-08T17:40:24.400Z,100.00
2022-08-08T17:45:51.359Z,100.00
2022-08-08T17:51:14.079Z,100.00
2022-08-08T17:56:43.499Z,100.00
2022-08-08T18:02:11.383Z,100.00
2022-08-08T18:08:02.573Z,100.00
2022-08-08T18:13:20.446Z,100.00
2022-08-08T18:18:52.622Z,100.00
2022-08-08T18:24:21.500Z,100.00
2022-08-08T18:29:44.220Z,100.00
2022-08-08T18:35:15.350Z,100.00
2022-08-08T18:40:37.588Z,100.00
2022-08-08T18:46:54.433Z,100.00
2022-08-08T18:51:52.526Z,100.00
2022-08-08T18:57:16.490Z,100.00
2022-08-08T19:02:38.578Z,100.00
2022-08-08T19:08:25.714Z,100.00
2022-08-08T19:13:57.147Z,100.00
2022-08-08T19:19:19.643Z,100.00
2022-08-08T19:25:02.668Z,100.00
2022-08-08T19:30:26.641Z,100.00
2022-08-08T19:36:08.429Z,100.00
2022-08-08T19:41:33.571Z,100.00
2022-08-08T19:46:55.971Z,100.00
2022-08-08T19:52:34.755Z,100.00
2022-08-08T19:57:58.000Z,100.00
2022-08-08T20:04:01.466Z,100.00
2022-08-08T20:09:04.600Z,100.00
2022-08-08T20:14:36.129Z,100.00
2022-08-08T20:20:09.311Z,100.00
2022-08-08T20:25:32.130Z,100.00
2022-08-08T20:30:56.528Z,100.00
2022-08-08T20:36:23.925Z,100.00
2022-08-08T20:41:52.489Z,100.00
2022-08-08T20:47:22.756Z,100.00
2022-08-08T20:52:56.721Z,100.00
2022-08-08T20:58:23.150Z,100.00
2022-08-08T21:03:55.372Z,100.00
2022-08-08T21:09:31.668Z,100.00
2022-08-08T21:15:10.036Z,100.00
2022-08-08T21:20:34.555Z,100.00
2022-08-08T21:25:57.838Z,100.00
2022-08-08T21:31:22.732Z,100.00
2022-08-08T21:36:49.956Z,100.00
2022-08-08T21:42:11.945Z,100.00
2022-08-08T21:48:07.952Z,100.00
2022-08-08T21:54:36.073Z,100.00
2022-08-08T21:58:59.172Z,100.00
2022-08-08T22:04:21.299Z,100.00
2022-08-08T22:09:44.437Z,100.00
2022-08-08T22:15:08.776Z,100.00
2022-08-08T22:20:33.720Z,100.00
2022-08-08T22:26:27.110Z,100.00
2022-08-08T22:31:38.620Z,100.00
2022-08-08T22:37:01.383Z,100.00
2022-08-08T22:42:32.073Z,100.00
2022-08-08T22:47:56.568Z,100.00
2022-08-08T22:54:32.496Z,100.00
2022-08-08T22:59:01.565Z,100.00
2022-08-08T23:04:31.743Z,100.00
2022-08-08T23:09:59.329Z,100.00
2022-08-08T23:16:38.580Z,100.00
2022-08-08T23:21:07.702Z,100.00
2022-08-08T23:26:30.525Z,100.00
2022-08-08T23:31:55.525Z,100.00
2022-08-08T23:37:17.750Z,100.00
2022-08-08T23:42:46.753Z,100.00
2022-08-08T23:49:02.870Z,100.00
2022-08-08T23:54:39.408Z,100.00
2022-08-08T23:59:46.584Z,100.00
